sensor_id;sensor_type;location;lat;lon;timestamp;pressure;altitude;pressure_sealevel;temperature;humidity
43553;BME280;29153;42.696;23.218;2022-09-09T08:38:49;94689.97;;;24.90;53.57
43553;BME280;29153;42.696;23.218;2022-09-09T08:49:54;94678.11;;;25.54;52.92
43553;BME280;29153;42.696;23.218;2022-09-09T08:54:51;94680.34;;;25.61;49.80
43553;BME280;29153;42.696;23.218;2022-09-09T08:57:25;94673.19;;;25.76;53.97
43553;BME280;29153;42.696;23.218;2022-09-09T08:59:55;94667.19;;;25.63;52.27
43553;BME280;29153;42.696;23.218;2022-09-09T09:02:33;94671.73;;;25.69;58.95
43553;BME280;29153;42.696;23.218;2022-09-09T09:08:01;94678.59;;;25.50;50.76
43553;BME280;29153;42.696;23.218;2022-09-09T09:10:42;94673.27;;;25.66;54.24
43553;BME280;29153;42.696;23.218;2022-09-09T09:13:18;94675.97;;;25.93;55.55
43553;BME280;29153;42.696;23.218;2022-09-09T09:15:50;94674.97;;;25.91;51.14
43553;BME280;29153;42.696;23.218;2022-09-09T09:18:17;94666.61;;;25.90;54.54
43553;BME280;29153;42.696;23.218;2022-09-09T09:20:52;94666.78;;;25.88;51.12
43553;BME280;29153;42.696;23.218;2022-09-09T09:23:25;94670.59;;;25.83;50.34
43553;BME280;29153;42.696;23.218;2022-09-09T09:25:56;94665.26;;;25.77;50.32
43553;BME280;29153;42.696;23.218;2022-09-09T09:28:26;94670.16;;;25.81;52.05
43553;BME280;29153;42.696;23.218;2022-09-09T09:31:13;94670.33;;;25.78;51.04
43553;BME280;29153;42.696;23.218;2022-09-09T09:33:52;94668.58;;;26.06;48.80
43553;BME280;29153;42.696;23.218;2022-09-09T09:36:16;94660.05;;;26.34;49.44
43553;BME280;29153;42.696;23.218;2022-09-09T09:38:59;94654.94;;;26.29;49.80
43553;BME280;29153;42.696;23.218;2022-09-09T09:41:41;94656.58;;;26.37;54.04
43553;BME280;29153;42.696;23.218;2022-09-09T09:44:28;94650.58;;;25.95;49.50
43553;BME280;29153;42.696;23.218;2022-09-09T09:47:13;94647.25;;;25.92;51.31
43553;BME280;29153;42.696;23.218;2022-09-09T09:49:55;94643.98;;;25.66;50.53
43553;BME280;29153;42.696;23.218;2022-09-09T09:52:26;94642.84;;;25.54;50.77
43553;BME280;29153;42.696;23.218;2022-09-09T09:54:59;94649.28;;;25.46;53.11
43553;BME280;29153;42.696;23.218;2022-09-09T09:57:32;94636.55;;;25.50;53.58
43553;BME280;29153;42.696;23.218;2022-09-09T10:00:18;94637.25;;;25.47;52.01
43553;BME280;29153;42.696;23.218;2022-09-09T10:02:47;94640.09;;;25.41;51.63
43553;BME280;29153;42.696;23.218;2022-09-09T10:05:21;94648.80;;;25.17;52.06
43553;BME280;29153;42.696;23.218;2022-09-09T10:08:11;94644.12;;;25.14;57.48
43553;BME280;29153;42.696;23.218;2022-09-09T10:14:03;94664.95;;;24.87;54.47
43553;BME280;29153;42.696;23.218;2022-09-09T10:30:41;94656.50;;;24.60;56.90
43553;BME280;29153;42.696;23.218;2022-09-09T10:33:10;94664.47;;;24.63;54.99
43553;BME280;29153;42.696;23.218;2022-09-09T10:36:06;94660.74;;;24.71;58.58
43553;BME280;29153;42.696;23.218;2022-09-09T10:38:44;94676.75;;;24.47;64.41
43553;BME280;29153;42.696;23.218;2022-09-09T10:41:19;94673.16;;;24.53;64.72
43553;BME280;29153;42.696;23.218;2022-09-09T10:55:27;94674.11;;;24.51;59.45
43553;BME280;29153;42.696;23.218;2022-09-09T10:57:57;94671.34;;;24.47;58.05
43553;BME280;29153;42.696;23.218;2022-09-09T11:00:38;94674.47;;;24.30;57.93
43553;BME280;29153;42.696;23.218;2022-09-09T11:03:05;94668.19;;;24.35;59.23
43553;BME280;29153;42.696;23.218;2022-09-09T11:05:53;94672.66;;;24.57;60.58
43553;BME280;29153;42.696;23.218;2022-09-09T11:08:25;94668.08;;;24.80;58.92
43553;BME280;29153;42.696;23.218;2022-09-09T11:13:55;94665.17;;;24.88;62.76
43553;BME280;29153;42.696;23.218;2022-09-09T11:19:04;94643.33;;;25.14;56.83
43553;BME280;29153;42.696;23.218;2022-09-09T11:21:40;94640.16;;;25.21;57.08
43553;BME280;29153;42.696;23.218;2022-09-09T11:24:12;94638.98;;;25.32;59.06
43553;BME280;29153;42.696;23.218;2022-09-09T11:26:39;94639.44;;;25.37;58.33
43553;BME280;29153;42.696;23.218;2022-09-09T11:29:24;94637.69;;;25.49;55.41
43553;BME280;29153;42.696;23.218;2022-09-09T11:40:31;94596.99;;;25.88;60.78
43553;BME280;29153;42.696;23.218;2022-09-09T11:43:09;94593.84;;;25.86;57.00
43553;BME280;29153;42.696;23.218;2022-09-09T11:45:40;94581.89;;;25.91;54.78
43553;BME280;29153;42.696;23.218;2022-09-09T11:48:36;94570.75;;;25.99;57.70
43553;BME280;29153;42.696;23.218;2022-09-09T11:51:09;94571.39;;;26.06;60.04
43553;BME280;29153;42.696;23.218;2022-09-09T11:53:59;94581.25;;;26.17;56.81
43553;BME280;29153;42.696;23.218;2022-09-09T11:59:28;94582.70;;;26.24;54.83
43553;BME280;29153;42.696;23.218;2022-09-09T12:04:33;94571.95;;;26.52;55.81
43553;BME280;29153;42.696;23.218;2022-09-09T12:07:31;94564.73;;;26.50;55.05
43553;BME280;29153;42.696;23.218;2022-09-09T12:12:47;94556.36;;;26.65;56.17
43553;BME280;29153;42.696;23.218;2022-09-09T12:15:22;94542.17;;;26.66;57.60
43553;BME280;29153;42.696;23.218;2022-09-09T12:17:57;94542.45;;;26.54;57.84
43553;BME280;29153;42.696;23.218;2022-09-09T12:20:38;94547.34;;;26.58;59.83
43553;BME280;29153;42.696;23.218;2022-09-09T12:26:26;94543.27;;;26.38;59.88
43553;BME280;29153;42.696;23.218;2022-09-09T12:29:04;94538.73;;;26.69;56.97
43553;BME280;29153;42.696;23.218;2022-09-09T12:31:34;94545.80;;;26.57;55.69
43553;BME280;29153;42.696;23.218;2022-09-09T12:34:19;94540.06;;;26.28;57.97
43553;BME280;29153;42.696;23.218;2022-09-09T12:36:52;94542.14;;;26.22;59.32
43553;BME280;29153;42.696;23.218;2022-09-09T12:39:29;94544.55;;;26.14;58.46
43553;BME280;29153;42.696;23.218;2022-09-09T12:42:00;94537.02;;;26.17;57.38
43553;BME280;29153;42.696;23.218;2022-09-09T12:44:30;94540.67;;;25.98;57.49
43553;BME280;29153;42.696;23.218;2022-09-09T12:47:02;94536.09;;;25.89;56.90
43553;BME280;29153;42.696;23.218;2022-09-09T12:49:38;94526.48;;;25.78;58.75
43553;BME280;29153;42.696;23.218;2022-09-09T12:52:20;94525.17;;;25.82;57.72
43553;BME280;29153;42.696;23.218;2022-09-09T12:54:45;94525.12;;;25.95;57.25
43553;BME280;29153;42.696;23.218;2022-09-09T12:57:15;94517.38;;;25.97;57.30
43553;BME280;29153;42.696;23.218;2022-09-09T12:59:47;94512.66;;;25.74;56.70
43553;BME280;29153;42.696;23.218;2022-09-09T13:02:28;94514.63;;;25.77;55.97
43553;BME280;29153;42.696;23.218;2022-09-09T13:05:05;94515.06;;;25.79;57.66
43553;BME280;29153;42.696;23.218;2022-09-09T13:07:27;94519.66;;;25.75;57.15
43553;BME280;29153;42.696;23.218;2022-09-09T13:09:55;94517.91;;;25.60;58.27
43553;BME280;29153;42.696;23.218;2022-09-09T13:12:24;94517.88;;;25.73;57.60
43553;BME280;29153;42.696;23.218;2022-09-09T13:14:56;94509.27;;;25.67;57.81
43553;BME280;29153;42.696;23.218;2022-09-09T13:17:26;94502.02;;;25.58;58.90
43553;BME280;29153;42.696;23.218;2022-09-09T13:19:57;94500.59;;;25.55;59.20
43553;BME280;29153;42.696;23.218;2022-09-09T13:22:38;94496.73;;;25.56;58.24
43553;BME280;29153;42.696;23.218;2022-09-09T13:27:52;94487.62;;;25.54;59.36
43553;BME280;29153;42.696;23.218;2022-09-09T13:30:25;94490.05;;;25.50;60.27
43553;BME280;29153;42.696;23.218;2022-09-09T13:35:55;94490.23;;;25.51;62.63
43553;BME280;29153;42.696;23.218;2022-09-09T13:38:24;94488.05;;;25.47;59.56
43553;BME280;29153;42.696;23.218;2022-09-09T13:43:26;94477.02;;;25.03;60.95
43553;BME280;29153;42.696;23.218;2022-09-09T13:45:59;94471.43;;;25.05;61.98
43553;BME280;29153;42.696;23.218;2022-09-09T13:48:27;94471.52;;;25.12;60.27
43553;BME280;29153;42.696;23.218;2022-09-09T13:50:59;94470.12;;;25.09;59.18
43553;BME280;29153;42.696;23.218;2022-09-09T13:53:27;94465.27;;;25.08;60.08
43553;BME280;29153;42.696;23.218;2022-09-09T13:55:55;94461.77;;;25.08;58.62
43553;BME280;29153;42.696;23.218;2022-09-09T13:58:23;94466.61;;;25.21;59.35
43553;BME280;29153;42.696;23.218;2022-09-09T14:00:52;94463.91;;;25.21;59.40
43553;BME280;29153;42.696;23.218;2022-09-09T14:03:21;94466.59;;;25.34;57.39
43553;BME280;29153;42.696;23.218;2022-09-09T14:05:48;94459.75;;;25.44;57.91
43553;BME280;29153;42.696;23.218;2022-09-09T14:08:21;94450.30;;;25.48;57.99
43553;BME280;29153;42.696;23.218;2022-09-09T14:10:49;94455.11;;;25.58;58.87
43553;BME280;29153;42.696;23.218;2022-09-09T14:13:17;94451.00;;;25.54;58.74
43553;BME280;29153;42.696;23.218;2022-09-09T14:15:44;94447.90;;;25.56;57.81
43553;BME280;29153;42.696;23.218;2022-09-09T14:18:12;94451.00;;;25.54;57.60
43553;BME280;29153;42.696;23.218;2022-09-09T14:20:40;94446.14;;;25.54;57.33
43553;BME280;29153;42.696;23.218;2022-09-09T14:23:14;94440.41;;;25.46;57.66
43553;BME280;29153;42.696;23.218;2022-09-09T14:25:40;94440.59;;;25.47;57.66
43553;BME280;29153;42.696;23.218;2022-09-09T14:28:11;94450.40;;;25.55;58.79
43553;BME280;29153;42.696;23.218;2022-09-09T14:30:40;94444.83;;;25.44;57.78
43553;BME280;29153;42.696;23.218;2022-09-09T14:33:09;94441.26;;;25.36;57.20
43553;BME280;29153;42.696;23.218;2022-09-09T14:35:38;94440.59;;;25.47;56.57
43553;BME280;29153;42.696;23.218;2022-09-09T14:38:07;94443.94;;;25.50;57.14
43553;BME280;29153;42.696;23.218;2022-09-09T14:40:36;94447.15;;;25.59;56.43
43553;BME280;29153;42.696;23.218;2022-09-09T14:43:05;94451.44;;;25.60;55.60
43553;BME280;29153;42.696;23.218;2022-09-09T14:45:32;94450.28;;;25.77;55.85
43553;BME280;29153;42.696;23.218;2022-09-09T14:47:59;94439.28;;;25.80;55.76
43553;BME280;29153;42.696;23.218;2022-09-09T14:50:26;94437.95;;;25.83;55.22
43553;BME280;29153;42.696;23.218;2022-09-09T14:52:53;94440.93;;;25.71;55.50
43553;BME280;29153;42.696;23.218;2022-09-09T14:55:20;94446.97;;;25.58;55.81
43553;BME280;29153;42.696;23.218;2022-09-09T14:57:48;94443.30;;;25.60;55.94
43553;BME280;29153;42.696;23.218;2022-09-09T15:00:16;94449.89;;;25.46;55.98
43553;BME280;29153;42.696;23.218;2022-09-09T15:02:43;94456.28;;;25.30;56.43
43553;BME280;29153;42.696;23.218;2022-09-09T15:05:11;94461.66;;;25.27;56.19
43553;BME280;29153;42.696;23.218;2022-09-09T15:07:38;94462.93;;;25.20;55.71
43553;BME280;29153;42.696;23.218;2022-09-09T15:10:06;94464.56;;;25.11;56.71
43553;BME280;29153;42.696;23.218;2022-09-09T15:12:33;94463.34;;;25.09;57.15
43553;BME280;29153;42.696;23.218;2022-09-09T15:15:01;94464.03;;;25.15;57.65
43553;BME280;29153;42.696;23.218;2022-09-09T15:17:29;94464.66;;;25.05;59.44
43553;BME280;29153;42.696;23.218;2022-09-09T15:19:56;94469.34;;;25.08;58.36
43553;BME280;29153;42.696;23.218;2022-09-09T15:22:24;94466.73;;;25.15;57.37
43553;BME280;29153;42.696;23.218;2022-09-09T15:24:51;94462.03;;;25.12;58.87
43553;BME280;29153;42.696;23.218;2022-09-09T15:27:18;94460.67;;;25.12;57.82
43553;BME280;29153;42.696;23.218;2022-09-09T15:29:46;94460.37;;;25.04;60.00
43553;BME280;29153;42.696;23.218;2022-09-09T15:32:14;94454.95;;;24.91;60.01
43553;BME280;29153;42.696;23.218;2022-09-09T15:34:41;94460.99;;;24.81;59.62
43553;BME280;29153;42.696;23.218;2022-09-09T15:37:11;94455.25;;;24.60;60.83
43553;BME280;29153;42.696;23.218;2022-09-09T15:39:40;94447.83;;;24.57;60.38
43553;BME280;29153;42.696;23.218;2022-09-09T15:42:07;94454.77;;;24.54;61.13
43553;BME280;29153;42.696;23.218;2022-09-09T15:44:42;94454.28;;;24.48;62.77
43553;BME280;29153;42.696;23.218;2022-09-09T15:47:13;94453.09;;;24.46;61.76
43553;BME280;29153;42.696;23.218;2022-09-09T15:49:41;94450.09;;;24.28;62.92
43553;BME280;29153;42.696;23.218;2022-09-09T15:52:08;94450.82;;;24.25;63.08
43553;BME280;29153;42.696;23.218;2022-09-09T15:54:37;94448.05;;;24.12;63.88
43553;BME280;29153;42.696;23.218;2022-09-09T15:57:06;94441.58;;;24.07;64.74
43553;BME280;29153;42.696;23.218;2022-09-09T15:59:35;94445.37;;;23.93;65.85
43553;BME280;29153;42.696;23.218;2022-09-09T16:02:02;94438.28;;;23.75;66.51
43553;BME280;29153;42.696;23.218;2022-09-09T16:04:30;94440.70;;;23.71;64.89
43553;BME280;29153;42.696;23.218;2022-09-09T16:07:03;94442.38;;;23.66;66.62
43553;BME280;29153;42.696;23.218;2022-09-09T16:09:32;94438.16;;;23.58;65.71
43553;BME280;29153;42.696;23.218;2022-09-09T16:12:01;94440.45;;;23.56;66.74
43553;BME280;29153;42.696;23.218;2022-09-09T16:14:31;94438.94;;;23.40;67.15
43553;BME280;29153;42.696;23.218;2022-09-09T16:17:00;94440.00;;;23.35;67.39
43553;BME280;29153;42.696;23.218;2022-09-09T16:19:27;94433.10;;;23.19;68.26
43553;BME280;29153;42.696;23.218;2022-09-09T16:21:55;94430.52;;;23.16;68.64
43553;BME280;29153;42.696;23.218;2022-09-09T16:24:23;94430.16;;;23.08;69.80
43553;BME280;29153;42.696;23.218;2022-09-09T16:26:52;94427.38;;;22.95;71.04
43553;BME280;29153;42.696;23.218;2022-09-09T16:29:21;94427.35;;;22.76;71.25
43553;BME280;29153;42.696;23.218;2022-09-09T16:31:50;94434.59;;;22.72;72.42
43553;BME280;29153;42.696;23.218;2022-09-09T16:34:18;94407.08;;;22.50;72.99
43553;BME280;29153;42.696;23.218;2022-09-09T16:36:45;94443.68;;;22.57;73.60
43553;BME280;29153;42.696;23.218;2022-09-09T16:39:16;94438.80;;;22.47;73.98
43553;BME280;29153;42.696;23.218;2022-09-09T16:41:45;94446.52;;;22.39;75.98
43553;BME280;29153;42.696;23.218;2022-09-09T16:44:15;94451.79;;;22.26;77.15
43553;BME280;29153;42.696;23.218;2022-09-09T16:46:45;94443.78;;;22.14;78.24
43553;BME280;29153;42.696;23.218;2022-09-09T16:49:14;94439.82;;;22.02;79.08
43553;BME280;29153;42.696;23.218;2022-09-09T16:51:50;94438.14;;;21.75;80.33
43553;BME280;29153;42.696;23.218;2022-09-09T16:54:20;94442.89;;;21.72;80.83
43553;BME280;29153;42.696;23.218;2022-09-09T16:56:49;94437.34;;;21.59;81.27
43553;BME280;29153;42.696;23.218;2022-09-09T16:59:19;94440.98;;;21.45;81.75
43553;BME280;29153;42.696;23.218;2022-09-09T17:01:49;94437.00;;;21.33;82.42
43553;BME280;29153;42.696;23.218;2022-09-09T17:04:19;94445.31;;;21.28;83.31
43553;BME280;29153;42.696;23.218;2022-09-09T17:06:52;94442.66;;;21.22;83.15
43553;BME280;29153;42.696;23.218;2022-09-09T17:09:21;94439.30;;;21.07;84.03
43553;BME280;29153;42.696;23.218;2022-09-09T17:11:49;94438.41;;;20.97;84.42
43553;BME280;29153;42.696;23.218;2022-09-09T17:14:19;94435.88;;;20.82;85.22
43553;BME280;29153;42.696;23.218;2022-09-09T17:16:47;94443.63;;;20.71;85.67
43553;BME280;29153;42.696;23.218;2022-09-09T17:19:14;94442.20;;;20.62;86.00
43553;BME280;29153;42.696;23.218;2022-09-09T17:21:41;94435.56;;;20.59;86.58
43553;BME280;29153;42.696;23.218;2022-09-09T17:24:11;94442.52;;;20.54;86.93
43553;BME280;29153;42.696;23.218;2022-09-09T17:26:38;94443.42;;;20.46;87.80
43553;BME280;29153;42.696;23.218;2022-09-09T17:29:07;94447.02;;;20.38;88.16
43553;BME280;29153;42.696;23.218;2022-09-09T17:31:34;94446.20;;;20.25;89.21
43553;BME280;29153;42.696;23.218;2022-09-09T17:34:02;94458.63;;;20.24;90.16
43553;BME280;29153;42.696;23.218;2022-09-09T17:36:33;94450.13;;;20.22;90.53
43553;BME280;29153;42.696;23.218;2022-09-09T17:39:02;94458.64;;;20.18;90.77
43553;BME280;29153;42.696;23.218;2022-09-09T17:41:35;94463.91;;;20.26;90.69
43553;BME280;29153;42.696;23.218;2022-09-09T17:44:04;94465.40;;;20.30;90.40
43553;BME280;29153;42.696;23.218;2022-09-09T17:46:34;94461.55;;;20.25;90.76
43553;BME280;29153;42.696;23.218;2022-09-09T17:49:09;94473.67;;;20.19;91.47
43553;BME280;29153;42.696;23.218;2022-09-09T17:51:33;94476.80;;;20.21;91.78
43553;BME280;29153;42.696;23.218;2022-09-09T17:54:03;94481.84;;;20.22;91.41
43553;BME280;29153;42.696;23.218;2022-09-09T17:56:32;94482.17;;;20.15;91.72
43553;BME280;29153;42.696;23.218;2022-09-09T17:59:02;94477.45;;;20.12;91.91
43553;BME280;29153;42.696;23.218;2022-09-09T18:01:35;94479.94;;;20.11;92.46
43553;BME280;29153;42.696;23.218;2022-09-09T18:04:04;94479.02;;;20.13;92.53
43553;BME280;29153;42.696;23.218;2022-09-09T18:06:34;94486.16;;;20.03;92.46
43553;BME280;29153;42.696;23.218;2022-09-09T18:09:06;94485.38;;;19.96;92.76
43553;BME280;29153;42.696;23.218;2022-09-09T18:11:39;94489.20;;;20.01;92.73
43553;BME280;29153;42.696;23.218;2022-09-09T18:14:10;94489.09;;;19.97;92.94
43553;BME280;29153;42.696;23.218;2022-09-09T18:16:40;94489.09;;;19.97;93.05
43553;BME280;29153;42.696;23.218;2022-09-09T18:19:09;94501.20;;;19.97;93.49
43553;BME280;29153;42.696;23.218;2022-09-09T18:21:40;94498.70;;;19.98;93.49
43553;BME280;29153;42.696;23.218;2022-09-09T18:24:08;94500.17;;;19.96;93.85
43553;BME280;29153;42.696;23.218;2022-09-09T18:26:37;94501.40;;;19.92;93.98
43553;BME280;29153;42.696;23.218;2022-09-09T18:29:08;94502.74;;;19.98;93.85
43553;BME280;29153;42.696;23.218;2022-09-09T18:31:37;94511.80;;;19.88;94.02
43553;BME280;29153;42.696;23.218;2022-09-09T18:34:07;94454.60;;;19.40;95.33
43553;BME280;29153;42.696;23.218;2022-09-09T18:36:39;94513.47;;;19.80;95.46
43553;BME280;29153;42.696;23.218;2022-09-09T18:39:07;94526.36;;;19.87;94.14
43553;BME280;29153;42.696;23.218;2022-09-09T18:41:37;94525.56;;;19.86;94.23
43553;BME280;29153;42.696;23.218;2022-09-09T18:44:13;94525.59;;;19.92;94.92
43553;BME280;29153;42.696;23.218;2022-09-09T18:46:39;94532.44;;;19.96;94.77
43553;BME280;29153;42.696;23.218;2022-09-09T18:49:07;94527.14;;;19.87;95.78
43553;BME280;29153;42.696;23.218;2022-09-09T18:51:38;94517.09;;;20.03;94.49
43553;BME280;29153;42.696;23.218;2022-09-09T18:54:10;94525.86;;;20.12;92.40
43553;BME280;29153;42.696;23.218;2022-09-09T18:56:37;94521.50;;;20.13;90.51
43553;BME280;29153;42.696;23.218;2022-09-09T18:59:05;94522.96;;;20.17;90.70
43553;BME280;29153;42.696;23.218;2022-09-09T19:01:34;94516.80;;;20.10;91.31
43553;BME280;29153;42.696;23.218;2022-09-09T19:04:03;94517.14;;;20.15;91.46
43553;BME280;29153;42.696;23.218;2022-09-09T19:06:33;94526.23;;;20.22;91.65
43553;BME280;29153;42.696;23.218;2022-09-09T19:09:00;94521.73;;;20.20;89.43
43553;BME280;29153;42.696;23.218;2022-09-09T19:11:28;94514.34;;;20.17;89.57
43553;BME280;29153;42.696;23.218;2022-09-09T19:13:57;94519.05;;;20.14;90.06
43553;BME280;29153;42.696;23.218;2022-09-09T19:16:28;94524.31;;;20.17;89.66
43553;BME280;29153;42.696;23.218;2022-09-09T19:19:01;94520.59;;;20.09;88.93
43553;BME280;29153;42.696;23.218;2022-09-09T19:21:36;94511.86;;;20.12;89.71
43553;BME280;29153;42.696;23.218;2022-09-09T19:24:21;94516.91;;;20.14;89.67
43553;BME280;29153;42.696;23.218;2022-09-09T19:26:37;94515.91;;;20.18;88.58
43553;BME280;29153;42.696;23.218;2022-09-09T19:29:11;94503.02;;;20.18;88.93
43553;BME280;29153;42.696;23.218;2022-09-09T19:31:41;94506.94;;;20.20;88.82
43553;BME280;29153;42.696;23.218;2022-09-09T19:34:09;94501.45;;;20.17;88.86
43553;BME280;29153;42.696;23.218;2022-09-09T19:36:37;94507.06;;;20.18;89.78
43553;BME280;29153;42.696;23.218;2022-09-09T19:39:06;94501.67;;;20.18;90.50
43553;BME280;29153;42.696;23.218;2022-09-09T19:41:35;94505.27;;;20.22;91.20
43553;BME280;29153;42.696;23.218;2022-09-09T19:44:05;94498.86;;;20.20;91.73
43553;BME280;29153;42.696;23.218;2022-09-09T19:46:35;94496.73;;;20.20;91.85
43553;BME280;29153;42.696;23.218;2022-09-09T19:49:04;94488.91;;;20.15;92.07
43553;BME280;29153;42.696;23.218;2022-09-09T19:51:32;94480.72;;;20.17;92.64
43553;BME280;29153;42.696;23.218;2022-09-09T19:54:09;94484.97;;;20.06;91.02
43553;BME280;29153;42.696;23.218;2022-09-09T19:56:34;94481.81;;;20.04;90.60
43553;BME280;29153;42.696;23.218;2022-09-09T19:59:03;94482.95;;;20.09;90.93
43553;BME280;29153;42.696;23.218;2022-09-09T20:01:36;94475.64;;;20.04;91.02
43553;BME280;29153;42.696;23.218;2022-09-09T20:04:05;94466.93;;;20.07;91.47
43553;BME280;29153;42.696;23.218;2022-09-09T20:06:35;94463.75;;;19.98;92.10
43553;BME280;29153;42.696;23.218;2022-09-09T20:09:04;94460.16;;;19.94;92.79
43553;BME280;29153;42.696;23.218;2022-09-09T20:11:32;94460.30;;;19.98;93.44
43553;BME280;29153;42.696;23.218;2022-09-09T20:14:00;94466.88;;;19.94;93.56
43553;BME280;29153;42.696;23.218;2022-09-09T20:16:29;94465.33;;;19.93;94.04
43553;BME280;29153;42.696;23.218;2022-09-09T20:18:59;94468.02;;;19.93;94.09
43553;BME280;29153;42.696;23.218;2022-09-09T20:21:30;94461.72;;;19.83;94.09
43553;BME280;29153;42.696;23.218;2022-09-09T20:24:03;94462.36;;;19.74;94.62
43553;BME280;29153;42.696;23.218;2022-09-09T20:26:32;94464.27;;;19.74;94.39
43553;BME280;29153;42.696;23.218;2022-09-09T20:29:07;94461.37;;;19.79;94.56
43553;BME280;29153;42.696;23.218;2022-09-09T20:31:33;94465.08;;;19.80;94.38
43553;BME280;29153;42.696;23.218;2022-09-09T20:34:16;94468.53;;;19.75;94.01
43553;BME280;29153;42.696;23.218;2022-09-09T20:36:40;94466.52;;;19.72;93.96
43553;BME280;29153;42.696;23.218;2022-09-09T20:39:10;94464.58;;;19.66;94.82
43553;BME280;29153;42.696;23.218;2022-09-09T20:41:40;94461.02;;;19.74;94.49
43553;BME280;29153;42.696;23.218;2022-09-09T20:44:16;94472.88;;;19.67;94.37
43553;BME280;29153;42.696;23.218;2022-09-09T20:46:43;94470.48;;;19.60;94.27
43553;BME280;29153;42.696;23.218;2022-09-09T20:49:15;94468.06;;;19.67;95.03
43553;BME280;29153;42.696;23.218;2022-09-09T20:51:43;94472.41;;;19.65;94.94
43553;BME280;29153;42.696;23.218;2022-09-09T20:54:14;94474.73;;;19.54;95.62
43553;BME280;29153;42.696;23.218;2022-09-09T20:56:43;94462.77;;;19.58;95.61
43553;BME280;29153;42.696;23.218;2022-09-09T20:59:14;94473.31;;;19.63;95.29
43553;BME280;29153;42.696;23.218;2022-09-09T21:01:42;94469.45;;;19.52;95.26
43553;BME280;29153;42.696;23.218;2022-09-09T21:04:11;94392.89;;;18.98;95.01
43553;BME280;29153;42.696;23.218;2022-09-09T21:06:40;94480.40;;;19.47;94.42
43553;BME280;29153;42.696;23.218;2022-09-09T21:09:07;94481.15;;;19.41;94.89
43553;BME280;29153;42.696;23.218;2022-09-09T21:11:35;94473.83;;;19.50;94.45
43553;BME280;29153;42.696;23.218;2022-09-09T21:14:03;94485.69;;;19.35;93.62
43553;BME280;29153;42.696;23.218;2022-09-09T21:16:31;94474.34;;;19.23;95.79
43553;BME280;29153;42.696;23.218;2022-09-09T21:18:59;94481.59;;;19.17;95.56
43553;BME280;29153;42.696;23.218;2022-09-09T21:21:27;94490.33;;;19.20;94.89
43553;BME280;29153;42.696;23.218;2022-09-09T21:23:56;94484.00;;;19.09;95.35
43553;BME280;29153;42.696;23.218;2022-09-09T21:26:25;94477.76;;;19.12;95.55
43553;BME280;29153;42.696;23.218;2022-09-09T21:28:53;94471.68;;;19.08;95.45
43553;BME280;29153;42.696;23.218;2022-09-09T21:31:21;94483.80;;;18.94;95.64
43553;BME280;29153;42.696;23.218;2022-09-09T21:33:49;94483.27;;;19.00;95.55
43553;BME280;29153;42.696;23.218;2022-09-09T21:36:17;94490.75;;;18.95;95.49
43553;BME280;29153;42.696;23.218;2022-09-09T21:38:44;94481.84;;;18.82;95.84
43553;BME280;29153;42.696;23.218;2022-09-09T21:41:13;94484.52;;;18.82;95.97
43553;BME280;29153;42.696;23.218;2022-09-09T21:43:43;94489.41;;;18.65;96.66
43553;BME280;29153;42.696;23.218;2022-09-09T21:46:14;94486.44;;;18.52;97.32
43553;BME280;29153;42.696;23.218;2022-09-09T21:48:41;94493.73;;;18.49;97.28
43553;BME280;29153;42.696;23.218;2022-09-09T21:51:12;94484.59;;;18.50;97.36
43553;BME280;29153;42.696;23.218;2022-09-09T21:53:40;94484.75;;;18.54;96.48
43553;BME280;29153;42.696;23.218;2022-09-09T21:56:17;94492.22;;;18.40;97.35
43553;BME280;29153;42.696;23.218;2022-09-09T21:58:45;94490.58;;;18.33;97.37
43553;BME280;29153;42.696;23.218;2022-09-09T22:01:15;94481.61;;;18.14;98.62
43553;BME280;29153;42.696;23.218;2022-09-09T22:03:43;94480.61;;;18.18;98.30
43553;BME280;29153;42.696;23.218;2022-09-09T22:06:13;94495.05;;;18.05;98.67
43553;BME280;29153;42.696;23.218;2022-09-09T22:08:41;94482.57;;;18.09;98.86
43553;BME280;29153;42.696;23.218;2022-09-09T22:11:11;94487.14;;;18.09;98.33
43553;BME280;29153;42.696;23.218;2022-09-09T22:13:40;94473.53;;;17.99;98.44
43553;BME280;29153;42.696;23.218;2022-09-09T22:16:10;94471.70;;;17.97;98.65
43553;BME280;29153;42.696;23.218;2022-09-09T22:18:39;94465.96;;;17.93;98.65
43553;BME280;29153;42.696;23.218;2022-09-09T22:21:10;94473.03;;;17.83;99.07
43553;BME280;29153;42.696;23.218;2022-09-09T22:23:37;94471.47;;;17.73;99.57
43553;BME280;29153;42.696;23.218;2022-09-09T22:26:06;94478.81;;;17.70;100.00
43553;BME280;29153;42.696;23.218;2022-09-09T22:28:34;94469.89;;;17.72;100.00
43553;BME280;29153;42.696;23.218;2022-09-09T22:31:03;94479.59;;;17.79;99.52
43553;BME280;29153;42.696;23.218;2022-09-09T22:33:31;94482.67;;;17.75;98.96
43553;BME280;29153;42.696;23.218;2022-09-09T22:35:58;94478.41;;;17.74;99.48
43553;BME280;29153;42.696;23.218;2022-09-09T22:38:26;94478.98;;;17.65;100.00
43553;BME280;29153;42.696;23.218;2022-09-09T22:40:54;94478.98;;;17.65;100.00
43553;BME280;29153;42.696;23.218;2022-09-09T22:43:22;94463.53;;;17.53;100.00
43553;BME280;29153;42.696;23.218;2022-09-09T22:45:50;94465.66;;;17.54;100.00
43553;BME280;29153;42.696;23.218;2022-09-09T22:48:18;94462.91;;;17.65;100.00
43553;BME280;29153;42.696;23.218;2022-09-09T22:50:46;94471.03;;;17.62;100.00
43553;BME280;29153;42.696;23.218;2022-09-09T22:53:14;94466.68;;;17.64;100.00
43553;BME280;29153;42.696;23.218;2022-09-09T22:55:52;94470.94;;;17.65;100.00
43553;BME280;29153;42.696;23.218;2022-09-09T22:58:11;94462.33;;;17.74;100.00
43553;BME280;29153;42.696;23.218;2022-09-09T23:00:39;94457.63;;;17.71;100.00
43553;BME280;29153;42.696;23.218;2022-09-09T23:03:07;94459.77;;;17.86;100.00